Time;durP1;ratioP1;P1;durP2;ratioP2;P2;SDS_P1;SDS_P2;PMS_P1;PMS_P2;Temp;Humidity;BMP_temperature;BMP_pressure;BME280_temperature;BME280_humidity;BME280_pressure;Samples;Min_cycle;Max_cycle;Signal;HPM_P1;HPM_P2
2022/08/25 00:01:29;;;;;;;25.38;13.30;;;;;;;20.68;78.22;93291.13;5110854;28;20020;-62
2022/08/25 00:03:55;;;;;;;22.13;11.77;;;;;;;20.56;78.85;93287.63;5110979;28;20148;-62
2022/08/25 00:06:20;;;;;;;21.98;11.82;;;;;;;20.66;78.96;93296.63;5109587;28;20397;-62
2022/08/25 00:08:47;;;;;;;15.25;11.10;;;;;;;20.63;79.88;93292.97;5110791;28;20027;-62
2022/08/25 00:11:18;;;;;;;17.52;11.40;;;;;;;20.59;80.42;93289.22;5111050;28;20024;-62
2022/08/25 00:13:46;;;;;;;22.55;10.93;;;;;;;20.53;80.66;93300.13;5110717;28;20408;-62
2022/08/25 00:16:13;;;;;;;22.15;11.98;;;;;;;20.56;80.78;93296.06;5090735;28;20032;-61
2022/08/25 00:18:41;;;;;;;27.52;11.80;;;;;;;20.58;80.49;93288.47;5103793;28;20019;-64
2022/08/25 00:21:07;;;;;;;19.02;11.68;;;;;;;20.51;81.32;93283.88;5110496;28;20047;-63
2022/08/25 00:23:32;;;;;;;25.27;11.57;;;;;;;20.53;81.69;93291.69;5110428;28;20024;-62
2022/08/25 00:25:58;;;;;;;17.00;11.77;;;;;;;20.54;81.46;93282.66;5110595;28;20024;-62
2022/08/25 00:28:23;;;;;;;25.52;11.10;;;;;;;20.51;81.88;93283.88;5110678;28;20027;-62
2022/08/25 00:30:49;;;;;;;32.78;12.40;;;;;;;20.39;82.52;93275.56;5110758;28;20020;-62
2022/08/25 00:33:15;;;;;;;23.75;12.93;;;;;;;20.48;82.63;93290.75;5110541;28;20020;-62
2022/08/25 00:35:41;;;;;;;19.75;11.20;;;;;;;20.43;82.72;93294.66;5110504;28;20114;-63
2022/08/25 00:38:09;;;;;;;25.83;10.57;;;;;;;20.33;83.33;93289.25;5110764;28;20020;-61
2022/08/25 00:40:35;;;;;;;16.35;10.32;;;;;;;20.38;83.71;93290.16;5110874;28;20031;-62
2022/08/25 00:43:01;;;;;;;14.85;9.93;;;;;;;20.42;82.77;93304.44;5110444;28;20027;-62
2022/08/25 00:45:27;;;;;;;14.07;10.05;;;;;;;20.40;82.76;93315.53;5110404;28;20515;-62
2022/08/25 00:47:52;;;;;;;17.40;10.75;;;;;;;20.47;82.34;93306.09;5110762;28;20102;-62
2022/08/25 00:50:19;;;;;;;21.02;10.20;;;;;;;20.51;82.29;93314.03;5110583;28;20055;-62
2022/08/25 00:52:48;;;;;;;14.50;9.98;;;;;;;20.20;82.58;93283.53;5110738;28;20416;-66
2022/08/25 00:55:20;;;;;;;16.40;11.27;;;;;;;20.46;82.97;93317.94;5109206;28;20020;-62
2022/08/25 00:57:50;;;;;;;18.48;11.70;;;;;;;20.49;82.71;93322.34;5109194;28;20023;-61
2022/08/25 01:00:26;;;;;;;13.48;10.73;;;;;;;20.51;82.75;93308.41;5110638;28;20054;-62
2022/08/25 01:02:52;;;;;;;14.05;10.48;;;;;;;20.53;82.51;93314.84;5110582;28;20031;-61
2022/08/25 01:05:18;;;;;;;16.30;11.75;;;;;;;20.55;82.39;93317.78;5110250;28;20092;-61
2022/08/25 01:07:43;;;;;;;14.98;11.10;;;;;;;20.54;82.32;93316.31;5110609;28;20106;-66
2022/08/25 01:10:10;;;;;;;14.40;11.75;;;;;;;20.49;81.17;93316.72;5108833;28;20466;-64
2022/08/25 01:12:36;;;;;;;19.63;12.48;;;;;;;20.53;81.91;93311.34;5109311;28;20023;-63
2022/08/25 01:15:04;;;;;;;16.15;11.38;;;;;;;20.54;82.36;93305.09;5110483;28;20076;-63
2022/08/25 01:17:48;;;;;;;19.37;10.83;;;;;;;20.47;82.41;93311.72;5105334;28;20073;-63
2022/08/25 01:20:14;;;;;;;14.57;9.98;;;;;;;20.49;81.97;93303.41;5089591;28;20051;-62
2022/08/25 01:22:40;;;;;;;16.95;10.32;;;;;;;20.54;81.84;93301.56;5090036;28;20019;-63
2022/08/25 01:25:46;;;;;;;23.50;9.88;;;;;;;20.55;81.51;93295.34;5089745;28;20504;-62
2022/08/25 01:28:12;;;;;;;17.23;10.85;;;;;;;20.40;82.04;93287.47;5088602;28;20493;-62
2022/08/25 01:30:38;;;;;;;19.35;10.40;;;;;;;20.30;82.04;93276.44;5088691;28;20028;-62
2022/08/25 01:33:04;;;;;;;29.25;12.70;;;;;;;20.39;82.40;93288.84;5089948;28;20398;-62
2022/08/25 01:35:31;;;;;;;23.63;12.52;;;;;;;20.39;82.21;93281.16;5092819;28;20035;-62
2022/08/25 01:37:57;;;;;;;22.90;12.88;;;;;;;20.43;82.04;93275.03;5093176;28;20076;-62
2022/08/25 01:40:22;;;;;;;25.70;14.25;;;;;;;20.45;81.32;93277.22;5091943;28;20023;-62
2022/08/25 01:43:06;;;;;;;24.75;16.35;;;;;;;20.52;79.04;93290.22;5093404;28;20428;-63
2022/08/25 01:45:33;;;;;;;22.92;13.57;;;;;;;20.48;79.23;93290.75;5093044;28;20466;-66
2022/08/25 01:47:59;;;;;;;20.58;13.55;;;;;;;20.39;79.89;93281.16;5093004;28;20085;-62
2022/08/25 01:50:24;;;;;;;21.88;12.05;;;;;;;20.45;79.87;93280.75;5092957;28;20024;-63
2022/08/25 01:52:58;;;;;;;19.15;11.23;;;;;;;20.35;80.66;93274.59;5093203;28;20401;-62
2022/08/25 01:55:24;;;;;;;27.20;11.93;;;;;;;20.27;81.35;93271.34;5091728;28;20475;-63
2022/08/25 01:57:50;;;;;;;25.13;11.73;;;;;;;20.20;81.70;93252.72;5092805;28;20060;-63
2022/08/25 02:00:16;;;;;;;21.38;11.68;;;;;;;20.12;81.81;93255.78;5092804;28;20023;-62
2022/08/25 02:02:42;;;;;;;20.35;12.10;;;;;;;20.19;81.44;93248.44;5092684;28;20035;-63
2022/08/25 02:05:09;;;;;;;20.33;13.90;;;;;;;20.19;80.97;93248.44;5093004;28;20024;-63
2022/08/25 02:07:35;;;;;;;16.13;12.18;;;;;;;20.20;80.60;93247.88;5104188;28;20115;-63
2022/08/25 02:10:03;;;;;;;23.27;13.50;;;;;;;20.17;79.79;93242.72;5113199;28;20091;-63
2022/08/25 02:12:30;;;;;;;21.05;13.13;;;;;;;20.21;79.59;93245.75;5113222;28;20020;-63
2022/08/25 02:14:57;;;;;;;19.83;13.02;;;;;;;20.08;79.25;93243.59;5113228;27;20205;-64
2022/08/25 02:17:22;;;;;;;22.58;13.02;;;;;;;19.97;79.84;93230.38;5109410;28;20127;-65
2022/08/25 02:19:48;;;;;;;23.65;11.05;;;;;;;20.09;80.10;93225.47;5111792;28;20124;-67
2022/08/25 02:22:14;;;;;;;16.17;11.68;;;;;;;20.00;81.14;93234.75;5112791;28;20023;-67
2022/08/25 02:24:39;;;;;;;34.42;12.95;;;;;;;19.99;81.90;93227.72;5112934;28;20148;-65
2022/08/25 02:27:05;;;;;;;16.60;11.10;;;;;;;19.92;82.02;93234.31;5112998;28;20488;-65
2022/08/25 02:29:30;;;;;;;19.77;10.45;;;;;;;19.96;81.94;93220.53;5112857;28;20072;-64
2022/08/25 02:31:56;;;;;;;24.17;10.70;;;;;;;19.91;82.17;93221.63;5112860;28;20015;-65
2022/08/25 02:34:22;;;;;;;23.45;10.80;;;;;;;19.84;82.89;93222.66;5112798;28;20051;-61
2022/08/25 02:36:47;;;;;;;105.28;13.98;;;;;;;19.87;82.68;93229.81;5112754;28;20028;-63
2022/08/25 02:39:13;;;;;;;31.75;10.32;;;;;;;19.77;83.16;93223.66;5112709;28;20084;-63
2022/08/25 02:41:38;;;;;;;16.65;8.85;;;;;;;19.79;83.27;93229.38;5112353;28;20030;-66
2022/08/25 02:44:05;;;;;;;14.95;9.75;;;;;;;19.79;83.45;93230.09;5112620;28;20077;-68
2022/08/25 02:46:31;;;;;;;23.08;9.70;;;;;;;19.75;83.21;93231.94;5112103;28;20027;-64
2022/08/25 02:48:56;;;;;;;23.52;10.65;;;;;;;19.76;83.49;93236.94;5112507;27;20038;-65
2022/08/25 02:51:23;;;;;;;21.35;10.68;;;;;;;19.74;83.50;93238.88;5112035;28;20042;-65
2022/08/25 02:53:49;;;;;;;28.65;10.00;;;;;;;19.71;83.63;93245.72;5112453;28;20028;-64
2022/08/25 02:56:16;;;;;;;23.58;11.45;;;;;;;19.71;83.77;93256.94;5112080;28;20323;-63
2022/08/25 02:58:41;;;;;;;26.10;10.40;;;;;;;19.76;83.85;93253.75;5111976;28;20028;-63
2022/08/25 03:01:10;;;;;;;24.20;10.82;;;;;;;19.81;83.54;93263.09;5112276;28;20102;-63
2022/08/25 03:03:39;;;;;;;22.50;10.55;;;;;;;19.87;83.20;93257.84;5102135;28;20528;-63
2022/08/25 03:06:08;;;;;;;24.05;9.85;;;;;;;19.90;83.07;93251.00;5091557;28;20081;-63
2022/08/25 03:08:34;;;;;;;;;;;;;;;19.94;83.07;93256.84;5092320;28;20016;-63
2022/08/25 03:11:00;;;;;;;23.08;11.00;;;;;;;19.90;82.98;93251.00;5091670;28;20412;-63
2022/08/25 03:13:25;;;;;;;25.77;10.93;;;;;;;19.94;82.85;93262.44;5091690;28;20099;-63
2022/08/25 03:15:51;;;;;;;26.05;10.80;;;;;;;19.99;82.36;93253.63;5091253;28;20429;-63
2022/08/25 03:18:16;;;;;;;25.38;10.95;;;;;;;20.02;82.37;93251.69;5101864;28;20022;-63
2022/08/25 03:20:42;;;;;;;18.98;10.38;;;;;;;20.00;81.89;93243.16;5111459;28;20504;-63
2022/08/25 03:23:07;;;;;;;23.52;10.68;;;;;;;19.99;81.31;93252.94;5111872;28;20074;-63
2022/08/25 03:28:18;;;;;;;18.77;9.48;;;;;;;20.01;81.09;93247.44;5111592;28;20080;-64
2022/08/25 03:30:43;;;;;;;20.63;9.35;;;;;;;19.97;80.95;93247.91;5111570;28;20020;-63
2022/08/25 03:33:09;;;;;;;20.48;10.60;;;;;;;20.05;81.31;93261.69;5111603;28;20026;-63
2022/08/25 03:35:35;;;;;;;17.45;9.95;;;;;;;19.95;81.62;93266.69;5111662;28;20499;-63
2022/08/25 03:38:00;;;;;;;18.25;8.85;;;;;;;20.00;81.33;93271.19;5111276;28;20027;-63
2022/08/25 03:40:26;;;;;;;18.13;11.07;;;;;;;19.96;81.46;93268.16;5111315;28;20057;-63
2022/08/25 03:42:52;;;;;;;15.30;9.23;;;;;;;19.77;82.15;93260.81;5111485;28;20024;-62
2022/08/25 03:45:18;;;;;;;19.10;10.07;;;;;;;19.88;81.80;93262.81;5111477;27;20023;-64
2022/08/25 03:47:47;;;;;;;19.27;10.15;;;;;;;19.89;81.07;93267.09;5111178;28;20046;-61
2022/08/25 03:50:14;;;;;;;15.63;9.25;;;;;;;19.87;81.52;93260.63;5111366;28;20058;-62
2022/08/25 03:52:40;;;;;;;24.48;10.10;;;;;;;19.94;81.27;93262.44;5111083;28;20020;-62
2022/08/25 03:55:08;;;;;;;20.60;9.13;;;;;;;19.86;81.42;93259.91;5111365;28;20030;-63
2022/08/25 03:57:33;;;;;;;16.40;8.73;;;;;;;19.86;81.61;93259.19;5110706;28;20024;-62
2022/08/25 03:59:59;;;;;;;20.35;10.45;;;;;;;19.90;81.68;93262.22;5100148;28;20085;-61
2022/08/25 04:02:24;;;;;;;21.50;9.52;;;;;;;19.92;81.81;93262.34;5090872;28;20051;-61
2022/08/25 04:04:50;;;;;;;20.83;9.60;;;;;;;19.96;81.42;93259.75;5090510;28;20489;-61
2022/08/25 04:07:16;;;;;;;19.20;9.40;;;;;;;19.95;81.62;93270.22;5090826;28;20102;-61
2022/08/25 04:09:41;;;;;;;18.00;10.35;;;;;;;20.02;81.33;93269.22;5090698;28;20386;-62
2022/08/25 04:12:07;;;;;;;19.52;9.52;;;;;;;20.06;80.62;93263.84;5090445;28;20059;-62
2022/08/25 04:14:33;;;;;;;20.85;9.10;;;;;;;20.05;80.55;93264.47;5090670;28;20023;-62
2022/08/25 04:16:58;;;;;;;16.00;8.30;;;;;;;20.06;79.72;93260.31;5090733;28;20446;-62
2022/08/25 04:19:23;;;;;;;20.92;9.23;;;;;;;20.05;79.72;93264.47;5105995;28;20385;-61
2022/08/25 04:21:50;;;;;;;19.73;9.23;;;;;;;20.05;79.29;93270.81;5110937;28;20434;-63
2022/08/25 04:24:16;;;;;;;19.80;9.10;;;;;;;20.05;79.11;93272.88;5110986;28;20023;-64
2022/08/25 04:26:44;;;;;;;18.70;8.23;;;;;;;20.09;79.02;93273.84;5111177;28;20035;-64
2022/08/25 04:29:12;;;;;;;21.77;7.88;;;;;;;20.04;79.31;93271.41;5109495;28;20020;-63
2022/08/25 04:31:39;;;;;;;28.05;8.73;;;;;;;20.07;79.41;93278.59;5110789;28;20024;-63
2022/08/25 04:34:06;;;;;;;17.05;7.25;;;;;;;20.06;79.18;93271.53;5110584;28;20028;-65
2022/08/25 04:36:31;;;;;;;18.83;7.60;;;;;;;20.04;79.20;93279.81;5110778;28;20082;-63
2022/08/25 04:38:57;;;;;;;19.20;7.75;;;;;;;20.05;79.53;93284.84;5110517;28;20047;-63
2022/08/25 04:41:23;;;;;;;11.52;6.68;;;;;;;20.17;79.22;93288.31;5110789;28;20039;-63
2022/08/25 04:43:50;;;;;;;20.30;8.07;;;;;;;20.20;79.77;93291.94;5110742;28;20019;-63
2022/08/25 04:46:24;;;;;;;20.45;7.63;;;;;;;20.29;79.90;93291.09;5110523;28;20035;-62
2022/08/25 04:48:51;;;;;;;18.15;8.13;;;;;;;20.28;79.32;93276.34;5110467;28;20496;-63
2022/08/25 04:51:19;;;;;;;20.13;7.53;;;;;;;20.40;79.03;93277.00;5110656;28;20028;-63
2022/08/25 04:53:45;;;;;;;19.27;8.35;;;;;;;20.49;78.97;93283.78;5110451;28;20035;-62
2022/08/25 04:56:14;;;;;;;21.70;8.60;;;;;;;20.45;78.88;93260.38;5099805;28;20032;-62
2022/08/25 04:58:40;;;;;;;28.85;8.23;;;;;;;20.60;78.35;93280.16;5090025;28;20071;-62
2022/08/25 05:01:08;;;;;;;25.33;8.80;;;;;;;20.64;78.25;93269.16;5090294;28;20413;-63
2022/08/25 05:03:34;;;;;;;19.87;8.33;;;;;;;20.66;78.62;93263.66;5090223;28;20075;-63
2022/08/25 05:06:00;;;;;;;22.77;8.80;;;;;;;20.69;78.32;93270.13;5089931;28;20994;-63
2022/08/25 05:08:26;;;;;;;14.85;7.57;;;;;;;20.74;78.19;93266.94;5090366;28;20024;-63
2022/08/25 05:10:53;;;;;;;22.30;7.45;;;;;;;20.76;78.32;93272.63;5093958;28;20413;-63
2022/08/25 05:13:19;;;;;;;12.32;6.95;;;;;;;20.80;77.00;93272.84;5093659;28;20032;-63
2022/08/25 05:15:54;;;;;;;24.70;8.80;;;;;;;20.84;76.89;93272.34;5093642;28;20028;-63
2022/08/25 05:18:21;;;;;;;22.98;7.50;;;;;;;20.84;77.08;93275.88;5104662;28;20374;-63
2022/08/25 05:20:46;;;;;;;23.42;7.30;;;;;;;20.88;76.46;93273.28;5113933;28;20039;-63
2022/08/25 05:23:12;;;;;;;18.75;6.38;;;;;;;20.89;76.26;93271.22;5114226;28;20453;-62
2022/08/25 05:25:37;;;;;;;18.48;6.43;;;;;;;20.85;75.81;93268.91;5114179;27;20030;-63
2022/08/25 05:28:03;;;;;;;19.80;6.88;;;;;;;20.79;75.27;93254.53;5114106;28;20507;-64
2022/08/25 05:30:28;;;;;;;17.90;6.30;;;;;;;20.85;74.70;93265.38;5113985;28;20403;-63
2022/08/25 05:32:54;;;;;;;17.95;7.55;;;;;;;20.83;74.77;93268.81;5113674;28;20084;-62
2022/08/25 05:35:19;;;;;;;20.33;5.85;;;;;;;20.87;74.98;93269.03;5113686;28;20026;-62
2022/08/25 05:37:46;;;;;;;20.55;6.47;;;;;;;20.80;74.65;93270.06;5113624;28;20019;-61
2022/08/25 05:40:12;;;;;;;20.08;7.00;;;;;;;20.86;75.24;93266.81;5113891;28;20027;-61
2022/08/25 05:42:38;;;;;;;16.75;6.97;;;;;;;20.90;75.38;93269.84;5113820;28;20046;-62
2022/08/25 05:45:04;;;;;;;20.42;6.95;;;;;;;21.01;74.05;93275.38;5113513;28;20019;-62
2022/08/25 05:47:30;;;;;;;29.75;7.25;;;;;;;21.04;73.75;93265.75;5113738;28;20055;-61
2022/08/25 05:49:55;;;;;;;13.25;6.05;;;;;;;21.03;73.35;93269.16;5113411;28;20054;-61
2022/08/25 05:52:21;;;;;;;24.23;6.32;;;;;;;20.91;73.91;93265.69;5103465;28;20042;-62
2022/08/25 05:54:46;;;;;;;15.63;6.07;;;;;;;20.97;74.04;93271.63;5092973;28;20031;-61
2022/08/25 05:57:12;;;;;;;29.05;7.03;;;;;;;21.00;73.89;93270.38;5093164;28;20027;-63
2022/08/25 05:59:37;;;;;;;12.43;5.53;;;;;;;20.99;73.43;93269.66;5092918;28;20447;-63
2022/08/25 06:04:47;;;;;;;24.00;6.82;;;;;;;21.05;74.06;93267.19;5093205;28;20062;-63
2022/08/25 06:07:12;;;;;;;17.33;5.90;;;;;;;20.96;74.41;93254.03;5092930;28;20056;-63
2022/08/25 06:09:39;;;;;;;15.00;6.47;;;;;;;21.18;73.49;93262.22;5092687;28;20506;-62
2022/08/25 06:12:06;;;;;;;13.02;5.72;;;;;;;21.23;73.07;93261.78;5092875;28;20024;-62
2022/08/25 06:14:32;;;;;;;23.40;6.90;;;;;;;21.28;72.92;93259.94;5092809;28;20036;-62
2022/08/25 06:16:59;;;;;;;15.57;6.05;;;;;;;21.28;72.50;93257.13;5092580;28;20056;-62
2022/08/25 06:19:24;;;;;;;15.27;7.15;;;;;;;21.24;72.83;93254.09;5108345;28;20110;-63
2022/08/25 06:21:53;;;;;;;13.93;7.20;;;;;;;21.30;72.18;93260.03;5113047;27;20473;-63
2022/08/25 06:24:18;;;;;;;23.10;6.50;;;;;;;21.33;72.17;93255.97;5112856;28;20734;-63
2022/08/25 06:26:44;;;;;;;16.05;8.45;;;;;;;21.40;72.77;93254.91;5112764;28;20072;-66
2022/08/25 06:29:10;;;;;;;24.08;7.78;;;;;;;21.46;72.61;93263.69;5112697;28;20495;-62
2022/08/25 06:31:35;;;;;;;13.80;6.65;;;;;;;21.50;71.49;93259.00;5112545;28;20077;-64
2022/08/25 06:34:01;;;;;;;16.75;8.52;;;;;;;21.51;72.07;93254.06;5112502;28;20081;-61
2022/08/25 06:36:27;;;;;;;13.25;7.18;;;;;;;21.74;71.21;93259.47;5112875;28;20032;-62
2022/08/25 06:38:52;;;;;;;23.45;7.30;;;;;;;21.88;70.22;93263.75;5112770;28;20030;-64
2022/08/25 06:41:18;;;;;;;17.92;6.85;;;;;;;21.83;71.20;93256.44;5112455;28;20016;-61
2022/08/25 06:43:44;;;;;;;27.92;9.65;;;;;;;21.93;71.23;93253.41;5112283;28;20024;-61
2022/08/25 06:46:15;;;;;;;16.40;7.05;;;;;;;22.05;70.08;93267.31;5112265;28;20042;-62
2022/08/25 06:48:41;;;;;;;24.05;7.95;;;;;;;22.02;69.65;93266.53;5101837;28;20031;-63
2022/08/25 06:51:11;;;;;;;28.70;9.82;;;;;;;22.09;70.97;93264.72;5091821;28;20042;-61
2022/08/25 06:53:37;;;;;;;30.73;8.80;;;;;;;22.09;69.29;93251.38;5091818;28;20034;-63
2022/08/25 06:56:03;;;;;;;13.57;6.22;;;;;;;22.20;69.44;93263.88;5091991;28;20048;-62
2022/08/25 06:58:29;;;;;;;20.70;7.45;;;;;;;22.18;69.51;93267.28;5091685;28;20028;-62
2022/08/25 07:00:54;;;;;;;20.50;7.22;;;;;;;22.42;68.41;93267.72;5091976;28;20024;-62
2022/08/25 07:03:20;;;;;;;23.42;7.20;;;;;;;22.54;68.61;93269.00;5091846;28;20020;-63
2022/08/25 07:05:53;;;;;;;20.00;6.90;;;;;;;22.64;67.42;93268.78;5091933;28;20020;-63
2022/08/25 07:08:19;;;;;;;20.48;7.32;;;;;;;22.74;67.39;93262.91;5091783;28;20024;-62
2022/08/25 07:10:44;;;;;;;18.70;7.75;;;;;;;22.64;66.35;93265.97;5091389;28;20512;-64
2022/08/25 07:13:10;;;;;;;23.88;8.07;;;;;;;22.78;66.04;93260.28;5091674;28;20024;-64
2022/08/25 07:15:39;;;;;;;17.52;6.90;;;;;;;22.98;65.33;93253.47;5091632;28;20492;-63
2022/08/25 07:18:05;;;;;;;18.58;7.50;;;;;;;23.23;63.42;93255.28;5100220;28;20020;-63
2022/08/25 07:20:33;;;;;;;27.63;6.63;;;;;;;23.25;62.91;93246.91;5111793;28;20032;-67
2022/08/25 07:22:59;;;;;;;22.00;7.30;;;;;;;23.19;64.09;93249.47;5111693;28;20492;-63
2022/08/25 07:25:24;;;;;;;23.67;7.13;;;;;;;23.25;63.51;93246.91;5111554;27;20099;-63
2022/08/25 07:27:50;;;;;;;18.67;6.97;;;;;;;23.23;63.09;93247.56;5111840;28;20027;-63
2022/08/25 07:30:16;;;;;;;24.58;7.40;;;;;;;23.39;62.55;93247.56;5111461;28;20485;-62
2022/08/25 07:32:41;;;;;;;21.40;6.88;;;;;;;23.38;62.82;93251.75;5110885;28;20103;-63
2022/08/25 07:35:16;;;;;;;27.10;8.48;;;;;;;23.83;62.55;93246.63;5111428;28;20023;-63
2022/08/25 07:37:56;;;;;;;23.38;7.55;;;;;;;24.03;61.75;93239.03;5111296;28;20032;-63
2022/08/25 07:40:26;;;;;;;36.42;11.20;;;;;;;24.41;58.84;93225.00;5111246;28;20065;-63
2022/08/25 07:42:54;;;;;;;31.77;8.70;;;;;;;24.99;57.52;93224.47;5111248;28;20102;-63
2022/08/25 07:45:24;;;;;;;25.30;7.57;;;;;;;25.37;55.96;93225.13;5097568;27;20112;-63
2022/08/25 07:47:52;;;;;;;24.92;6.47;;;;;;;25.44;56.78;93213.41;5091191;28;20039;-63
2022/08/25 07:50:18;;;;;;;33.33;7.97;;;;;;;26.19;54.12;93232.94;5090714;28;20043;-63
2022/08/25 07:52:44;;;;;;;29.75;8.05;;;;;;;26.58;52.57;93229.94;5090982;28;20020;-64
2022/08/25 07:55:10;;;;;;;30.25;8.38;;;;;;;26.88;52.25;93236.56;5090688;28;20031;-64
2022/08/25 07:57:39;;;;;;;22.83;7.57;;;;;;;26.44;51.56;93218.19;5090913;28;20028;-62
2022/08/25 08:00:07;;;;;;;22.23;6.78;;;;;;;26.03;50.78;93235.22;5090681;28;20020;-62
2022/08/25 08:02:32;;;;;;;21.60;6.53;;;;;;;25.76;54.54;93236.44;5090501;28;20127;-62
2022/08/25 08:04:58;;;;;;;20.65;6.93;;;;;;;25.62;53.53;93232.41;5090633;28;20108;-63
2022/08/25 08:07:25;;;;;;;20.80;7.20;;;;;;;25.31;55.33;93234.13;5090778;28;20035;-62
2022/08/25 08:09:51;;;;;;;38.17;10.57;;;;;;;25.31;55.63;93230.56;5090451;28;20028;-62
2022/08/25 08:12:17;;;;;;;24.40;7.20;;;;;;;25.43;53.45;93231.75;5090738;28;20028;-62
2022/08/25 08:14:43;;;;;;;21.80;6.95;;;;;;;25.50;56.78;93221.38;5090391;28;20103;-61
2022/08/25 08:17:09;;;;;;;25.50;6.60;;;;;;;26.06;53.50;93236.72;5091844;28;20505;-62
2022/08/25 08:19:36;;;;;;;16.42;5.38;;;;;;;26.42;50.48;93226.63;5109843;28;20111;-63
2022/08/25 08:22:02;;;;;;;25.08;5.90;;;;;;;26.66;49.86;93232.31;5109821;28;20016;-63
2022/08/25 08:24:29;;;;;;;29.33;6.55;;;;;;;26.83;48.12;93217.28;5111082;28;20164;-63
2022/08/25 08:26:54;;;;;;;28.30;5.80;;;;;;;27.00;48.63;93217.13;5110670;28;20026;-62
2022/08/25 08:29:21;;;;;;;23.20;5.47;;;;;;;26.90;46.20;93216.81;5110617;28;20019;-65
2022/08/25 08:31:47;;;;;;;22.90;5.20;;;;;;;26.94;47.83;93224.72;5110858;28;20107;-64
2022/08/25 08:34:12;;;;;;;14.95;4.50;;;;;;;26.67;45.85;93216.75;5110521;28;20164;-63
2022/08/25 08:36:38;;;;;;;21.52;4.68;;;;;;;26.78;45.51;93222.13;5110904;28;20027;-62
2022/08/25 08:39:03;;;;;;;19.17;4.50;;;;;;;26.83;46.29;93215.16;5110501;28;20102;-67
2022/08/25 08:44:41;;;;;;;;;;;;;;;27.35;45.00;93212.44;5094718;28;20031;-65
2022/08/25 08:47:37;;;;;;;15.13;3.72;;;;;;;27.30;44.01;93227.88;5094582;28;19908;-68
2022/08/25 08:50:23;;;;;;;14.13;5.05;;;;;;;26.94;44.99;93210.53;5094497;28;20024;-67
2022/08/25 08:52:53;;;;;;;25.92;6.18;;;;;;;27.14;46.09;93218.91;5094192;28;20028;-67
2022/08/25 08:55:31;;;;;;;22.15;5.35;;;;;;;27.19;46.90;93215.53;5094384;28;20070;-66
2022/08/25 08:57:59;;;;;;;25.40;5.72;;;;;;;27.00;46.16;93231.28;5094389;28;20035;-66
2022/08/25 09:00:25;;;;;;;33.27;5.30;;;;;;;26.98;47.29;93228.38;5092809;28;20085;-65
2022/08/25 09:02:57;;;;;;;22.13;5.43;;;;;;;26.69;47.06;93217.56;5093052;28;20024;-66
2022/08/25 09:05:26;;;;;;;26.33;7.15;;;;;;;26.68;46.95;93221.06;5094251;28;20024;-66
2022/08/25 09:07:53;;;;;;;;;;;;;;;26.82;46.36;93233.56;5093199;28;20032;-66
2022/08/25 09:10:19;;;;;;;21.90;5.85;;;;;;;26.33;47.71;93232.69;5094083;28;19912;-66
2022/08/25 09:13:14;;;;;;;33.40;5.50;;;;;;;26.21;49.12;93228.06;5093780;28;20100;-66
2022/08/25 09:18:56;;;;;;;22.58;4.72;;;;;;;25.97;51.29;93226.50;5105768;28;20034;-66
2022/08/25 09:21:24;;;;;;;39.42;7.40;;;;;;;26.05;51.42;93226.81;5112640;28;20047;-66
2022/08/25 09:24:28;;;;;;;28.77;4.78;;;;;;;26.03;49.39;93233.09;5114059;28;20118;-66
2022/08/25 09:27:30;;;;;;;19.30;5.35;;;;;;;26.11;49.08;93232.69;5075832;27;20610;-65
2022/08/25 09:30:10;;;;;;;24.42;4.80;;;;;;;26.16;49.41;93232.16;5113448;28;20031;-66
2022/08/25 09:32:42;;;;;;;20.15;3.92;;;;;;;26.21;48.30;93233.72;5113778;27;20032;-66
2022/08/25 09:35:19;;;;;;;24.50;4.53;;;;;;;26.24;47.62;93231.69;5112822;28;20031;-65
2022/08/25 09:38:02;;;;;;;18.30;4.45;;;;;;;26.22;49.18;93228.81;5113639;28;20027;-66
2022/08/25 09:40:31;;;;;;;22.05;4.10;;;;;;;26.52;48.20;93243.94;5113923;28;20050;-66
2022/08/25 09:42:57;;;;;;;;;;;;;;;27.00;47.12;93227.72;5114228;27;20408;-66
2022/08/25 09:45:42;;;;;;;28.00;4.97;;;;;;;27.50;47.89;93234.13;5113786;28;19916;-67
2022/08/25 09:48:46;;;;;;;28.45;5.53;;;;;;;27.81;45.47;93215.84;5113565;28;20556;-67
2022/08/25 09:51:19;;;;;;;28.15;7.05;;;;;;;27.96;44.69;93218.34;5078184;28;20571;-67
2022/08/25 09:53:52;;;;;;;20.40;4.00;;;;;;;27.99;46.06;93222.00;5113387;28;20536;-68
2022/08/25 09:56:20;;;;;;;17.95;4.40;;;;;;;28.00;45.30;93223.44;5112700;28;20523;-67
2022/08/25 09:58:46;;;;;;;23.85;4.57;;;;;;;27.82;44.97;93226.50;5113547;28;20103;-65
2022/08/25 10:01:15;;;;;;;26.00;4.07;;;;;;;27.99;43.48;93217.03;5112317;28;20095;-67
2022/08/25 10:04:09;;;;;;;22.17;3.50;;;;;;;28.28;42.94;93207.84;5111944;28;20081;-65
2022/08/25 10:06:46;;;;;;;21.33;4.38;;;;;;;28.39;43.79;93218.03;5098931;28;20041;-65
2022/08/25 10:09:26;;;;;;;35.38;5.25;;;;;;;28.66;42.30;93208.06;5113058;28;20030;-66
2022/08/25 10:11:53;;;;;;;17.42;4.10;;;;;;;29.11;41.64;93201.22;5112085;28;20046;-66
2022/08/25 10:14:27;;;;;;;19.30;3.75;;;;;;;29.57;41.73;93198.63;5113001;28;20099;-67
2022/08/25 10:17:11;;;;;;;20.95;4.70;;;;;;;30.02;40.50;93200.91;5113242;28;20020;-64
2022/08/25 10:19:36;;;;;;;21.38;4.30;;;;;;;30.32;39.11;93200.75;5110260;28;20098;-67
2022/08/25 10:22:06;;;;;;;16.02;3.75;;;;;;;29.79;40.45;93202.66;5112862;28;20424;-66
2022/08/25 10:24:32;;;;;;;19.90;4.93;;;;;;;30.11;41.35;93190.38;5113076;27;20075;-66
2022/08/25 10:27:07;;;;;;;19.92;4.80;;;;;;;30.76;40.53;93184.34;5112752;28;20104;-66
2022/08/25 10:29:53;;;;;;;21.95;5.20;;;;;;;30.52;38.95;93193.25;5111454;28;20019;-66
2022/08/25 10:32:31;;;;;;;20.33;3.58;;;;;;;30.99;36.54;93194.66;5112180;28;20501;-65
2022/08/25 10:35:11;;;;;;;18.20;3.72;;;;;;;31.54;35.67;93195.41;5092595;28;20019;-65
2022/08/25 10:37:59;;;;;;;24.80;3.95;;;;;;;31.86;34.72;93192.94;5091241;28;20031;-66
2022/08/25 10:40:45;;;;;;;;;;;;;;;31.94;34.67;93190.16;5092628;28;20080;-68
2022/08/25 10:43:23;;;;;;;15.48;2.90;;;;;;;31.50;35.21;93190.38;5090889;28;20376;-66
2022/08/25 10:45:50;;;;;;;;;;;;;;;31.95;34.77;93194.44;5091393;28;20063;-67
2022/08/25 10:48:27;;;;;;;25.85;4.90;;;;;;;32.72;33.45;93190.88;5091064;28;19998;-67
2022/08/25 10:51:21;;;;;;;33.67;4.65;;;;;;;33.40;31.97;93181.28;5092112;28;20024;-66
2022/08/25 10:54:05;;;;;;;18.65;3.58;;;;;;;33.84;32.36;93184.34;5090733;28;20031;-67
2022/08/25 10:56:34;;;;;;;24.27;5.32;;;;;;;34.04;31.89;93175.81;5091772;28;20024;-66
2022/08/25 10:59:06;;;;;;;20.70;3.97;;;;;;;34.12;31.02;93184.44;5092010;28;20024;-66
2022/08/25 11:01:37;;;;;;;24.90;4.30;;;;;;;34.00;30.99;93178.63;5091894;28;20386;-67
2022/08/25 11:04:07;;;;;;;27.05;11.98;;;;;;;33.50;30.90;93175.59;5091996;28;20057;-70
2022/08/25 11:06:38;;;;;;;35.50;7.57;;;;;;;32.37;32.85;93171.28;5090337;28;20028;-67
2022/08/25 11:09:10;;;;;;;26.48;4.03;;;;;;;31.84;35.54;93175.75;5090631;28;20404;-65
2022/08/25 11:11:54;;;;;;;29.75;11.63;;;;;;;32.12;35.75;93181.75;5090239;28;20016;-68
2022/08/25 11:14:30;;;;;;;86.35;37.72;;;;;;;31.92;33.68;93178.72;5091425;28;20027;-67
2022/08/25 11:17:24;;;;;;;65.18;22.77;;;;;;;31.70;35.11;93164.19;5090217;28;20489;-65
2022/08/25 11:20:00;;;;;;;52.53;17.25;;;;;;;31.52;35.54;93172.53;5110685;28;20043;-66
2022/08/25 11:22:56;;;;;;;35.67;12.68;;;;;;;31.56;37.25;93161.91;5110412;28;20504;-66
2022/08/25 11:25:24;;;;;;;19.77;4.43;;;;;;;31.24;35.92;93167.19;5111444;28;20049;-66
2022/08/25 11:28:11;;;;;;;23.13;4.60;;;;;;;31.53;34.50;93154.03;5110723;28;20034;-67
2022/08/25 11:30:37;;;;;;;75.97;27.95;;;;;;;31.36;34.03;93153.78;5095170;27;20036;-68
2022/08/25 11:33:03;;;;;;;71.60;33.70;;;;;;;30.69;36.46;93143.63;5091030;28;20030;-69
2022/08/25 11:35:42;;;;;;;38.10;11.40;;;;;;;30.15;38.52;93153.47;5090175;28;20454;-67
2022/08/25 11:38:13;;;;;;;31.52;5.18;;;;;;;29.70;38.12;93143.38;5091367;28;20055;-66
2022/08/25 11:40:43;;;;;;;20.55;4.20;;;;;;;29.77;40.19;93137.16;5090981;28;20784;-67
2022/08/25 11:43:39;;;;;;;32.60;8.13;;;;;;;29.82;38.07;93135.81;5091271;28;20028;-67
2022/08/25 11:46:38;;;;;;;54.72;19.48;;;;;;;29.43;39.05;93136.50;5090866;28;20493;-67